• Join FlightAware (Why Join?)
  • Login
  • US Flag 
12:01AM EDT


 

Airport Tracker/Info


-or-


 

Live Flight TrackerFlight Track Log ✈ VH-HUG ✈ 11-Dec-2013 ✈ YPJT / JAD - YPJT / JAD

Flight Track Log - Related Links

Times and Time Zones

All times are in EST time to prevent confusion due to time zone crossing. See the VH-HUG flight status page for this flight to view local times or setup timezone preferences in your user account.

Time Position Orientation Groundspeed Altitude Reporting Facility
EST Latitude Longitude Course Direction KTS MPH feet Rate Location/Type
12:00AM -32.1158 115.8500 138° Southeast 120 138 1,000  Level Aus ATC (RADAR)
12:01AM -32.1299 115.8650 138° Southeast 121 139 1,500 420 Climbing Aus ATC (RADAR)
12:01AM -32.1254 115.8940 80° East 146 168 1,500 720 Level Aus ATC (RADAR)
12:02AM -32.1200 115.9314 80° East 127 146 2,600 1,140 Climbing Aus ATC (RADAR)
12:03AM -32.1239 115.9552 101° East 122 140 3,100 780 Climbing Aus ATC (RADAR)
12:03AM -32.1298 115.9825 104° East 126 145 3,600 660 Climbing Aus ATC (RADAR)
12:04AM -32.1381 116.0094 110° East 141 162 4,000 600 Climbing Aus ATC (RADAR)
12:04AM -32.1469 116.0381 110° East 151 174 4,300 720 Climbing Aus ATC (RADAR)
12:05AM -32.1579 116.0729 110° East 145 167 5,000 540 Climbing Aus ATC (RADAR)
12:06AM -32.1654 116.0997 108° East 165 190 5,000  Level Aus ATC (RADAR)
12:06AM -32.1765 116.1357 110° East 167 192 5,000  Level Aus ATC (RADAR)
12:07AM -32.1940 116.1896 111° Southeast 170 196 5,000 -120 Level Aus ATC (RADAR)
12:08AM -32.2014 116.2117 112° Southeast 168 193 4,900  Descending Aus ATC (RADAR)
12:08AM -32.2070 116.2296 110° East 169 194 5,000 60 Climbing Aus ATC (RADAR)
12:09AM -32.2245 116.2833 111° Southeast 173 199 5,000 180 Level Aus ATC (RADAR)
12:10AM -32.2348 116.3132 112° Southeast 161 185 5,300 720 Climbing Aus ATC (RADAR)
12:10AM -32.2491 116.3467 117° Southeast 145 167 6,000 780 Climbing Aus ATC (RADAR)
12:11AM -32.2586 116.3691 117° Southeast 146 168 6,300 720 Climbing Aus ATC (RADAR)
12:11AM -32.2696 116.3950 117° Southeast 145 167 6,800 300 Climbing Aus ATC (RADAR)
12:13AM -32.2908 116.4527 114° Southeast 163 188 6,900 120 Climbing Aus ATC (RADAR)
12:13AM -32.2987 116.4748 113° Southeast 168 193 7,000 60 Climbing Aus ATC (RADAR)
12:14AM -32.3135 116.5102 116° Southeast 176 203 7,000  Level Aus ATC (RADAR)
12:14AM -32.3279 116.5483 114° Southeast 184 212 7,000 -120 Level Aus ATC (RADAR)
12:15AM -32.3434 116.5917 113° Southeast 186 214 6,900 -120 Descending Aus ATC (RADAR)
12:16AM -32.3601 116.6345 115° Southeast 184 212 6,900  Level Aus ATC (RADAR)
12:16AM -32.3701 116.6633 112° Southeast 182 209 6,900 60 Level Aus ATC (RADAR)
12:17AM -32.3924 116.7251 113° Southeast 182 209 7,000  Climbing Aus ATC (RADAR)
12:18AM -32.4016 116.7485 115° Southeast 184 212 6,900  Descending Aus ATC (RADAR)
12:18AM -32.4139 116.7824 113° Southeast 188 216 7,000 120 Climbing Aus ATC (RADAR)
12:19AM -32.4188 116.7968 112° Southeast 186 214 7,000  Level Aus ATC (RADAR)
12:20AM -32.4464 116.8620 117° Southeast 184 212 7,000  Level Aus ATC (RADAR)
12:21AM -32.4616 116.8985 116° Southeast 181 208 7,000  Level Aus ATC (RADAR)
12:22AM -32.4906 116.9619 118° Southeast 183 211 7,000 -600 Level Aus ATC (RADAR)
12:23AM -32.5219 117.0302 119° Southeast 185 213 5,600 -1,200 Descending Aus ATC (RADAR)
12:23AM -32.5273 117.0447 114° Southeast 187 215 5,200 -1,140 Descending Aus ATC (RADAR)
12:24AM -32.5415 117.0834 114° Southeast 187 215 4,600 -900 Descending Aus ATC (RADAR)
12:24AM -32.5452 117.0922 116° Southeast 182 209 4,500 -120 Descending Aus ATC (RADAR)
12:25AM -32.5628 117.1491 110° East 140 161 4,500  Level Aus ATC (RADAR)
12:26AM -32.5657 117.1600 107° East 114 131 4,500  Level Aus ATC (RADAR)
12:27AM -32.5435 117.0926 291° West 135 155 4,600 -60 Climbing Aus ATC (RADAR)
12:28AM -32.5393 117.0732 284° West 142 163 4,400 -120 Descending Aus ATC (RADAR)
12:28AM -32.5320 117.0580 300° West 127 146 4,500 60 Climbing Aus ATC (RADAR)
12:29AM -32.5170 117.0855 57° Northeast 164 189 4,500  Level Aus ATC (RADAR)
12:30AM -32.5247 117.1091 111° Southeast 131 151 4,500 -120 Level Aus ATC (RADAR)
12:30AM -32.5296 117.1293 106° East 125 144 4,400 -180 Descending Aus ATC (RADAR)
12:31AM -32.5392 117.1519 117° Southeast 114 131 4,300  Descending Aus ATC (RADAR)
12:31AM -32.5497 117.1189 249° West 130 150 4,400 240 Climbing Aus ATC (RADAR)
12:32AM -32.5440 117.0970 287° West 122 140 4,600 60 Climbing Aus ATC (RADAR)
12:33AM -32.5295 117.0519 291° West 112 129 4,600 -180 Level Aus ATC (RADAR)
12:33AM -32.5162 117.0607 29° Northeast 122 140 4,400  Descending Aus ATC (RADAR)
12:34AM -32.5149 117.0834 86° East 150 173 4,600  Climbing Aus ATC (RADAR)
12:35AM -32.5233 117.1090 111° Southeast 124 143 4,400 -360 Descending Aus ATC (RADAR)
12:35AM -32.5259 117.1186 108° East 121 139 4,300 180 Descending Aus ATC (RADAR)
12:36AM -32.5445 117.1346 144° Southeast 129 148 4,600 60 Climbing Aus ATC (RADAR)
12:36AM -32.5489 117.1096 258° West 114 131 4,400 -180 Descending Aus ATC (RADAR)
12:37AM -32.5388 117.0777 291° West 126 145 4,400  Level Aus ATC (RADAR)
12:38AM -32.5276 117.0310 286° West 123 142 4,500  Climbing Aus ATC (RADAR)
12:39AM -32.5239 117.0097 282° West 128 147 4,400 -300 Descending Aus ATC (RADAR)
12:39AM -32.5212 116.9995 287° West 129 148 4,300 -420 Descending Aus ATC (RADAR)
12:40AM -32.5212 116.9783 270° West 119 137 4,100 -540 Descending Aus ATC (RADAR)
12:41AM -32.5457 116.9985 145° Southeast 109 125 3,400 -240 Descending Aus ATC (RADAR)
12:43AM -32.5353 117.0956 83° East 109 125 3,300 60 Descending Aus ATC (RADAR)
12:44AM -32.5320 117.1125 77° East 119 137 3,700 960 Climbing Aus ATC (RADAR)
12:44AM -32.5306 117.1291 84° East 118 136 4,100 1,020 Climbing Aus ATC (RADAR)
12:45AM -32.5298 117.1483 87° East 115 132 4,700 180 Climbing Aus ATC (RADAR)
12:46AM -32.5485 117.1756 129° Southeast 176 203 4,400 -180 Descending Aus ATC (RADAR)
12:47AM -32.5478 117.1268 271° West 117 135 4,400  Level Aus ATC (RADAR)
12:47AM -32.5465 117.1068 274° West 119 137 4,500 60 Climbing Aus ATC (RADAR)
12:48AM -32.5393 117.0756 285° West 129 148 4,500 -120 Level Aus ATC (RADAR)
12:49AM -32.5294 117.0455 291° West 115 132 4,400 60 Descending Aus ATC (RADAR)
12:49AM -32.5240 117.0257 288° West 123 142 4,600  Climbing Aus ATC (RADAR)
12:50AM -32.5220 117.0113 279° West 126 145 4,400 -420 Descending Aus ATC (RADAR)
12:51AM -32.5159 116.9744 281° West 114 131 4,100 -240 Descending Aus ATC (RADAR)
12:51AM -32.5306 116.9672 202° Southwest 162 186 4,100 -720 Level Aus ATC (RADAR)
12:52AM -32.5389 117.0004 107° East 118 136 3,200 -960 Descending Aus ATC (RADAR)
12:52AM -32.5399 117.0095 97° East 117 135 3,000 300 Descending Aus ATC (RADAR)
12:57AM -32.5373 117.0848 97° East 160 184 4,900 360 Climbing Aus ATC (RADAR)
12:57AM -32.5275 117.0601 295° West 162 186 5,000 60 Climbing Aus ATC (RADAR)
12:58AM -32.5083 117.0088 294° West 164 189 5,000 120 Level Aus ATC (RADAR)
01:04AM -32.3608 116.7150 301° West 180 207 5,900 120 Climbing Aus ATC (RADAR)
01:05AM -32.3441 116.6857 304° West 180 207 5,900 60 Level Aus ATC (RADAR)
01:06AM -32.3163 116.6363 304° West 178 205 6,000  Climbing Aus ATC (RADAR)
01:06AM -32.3004 116.6122 308° West 182 209 5,900  Descending Aus ATC (RADAR)
01:07AM -32.2754 116.5714 306° West 182 209 6,000 60 Climbing Aus ATC (RADAR)
01:07AM -32.2651 116.5556 308° West 178 205 6,000  Level Aus ATC (RADAR)
01:08AM -32.2346 116.5078 307° West 178 205 6,000 -60 Level Aus ATC (RADAR)
01:10AM -32.1861 116.4263 305° West 177 204 5,900 -180 Descending Aus ATC (RADAR)
01:11AM -32.1623 116.3895 307° West 184 212 5,600 -480 Descending Aus ATC (RADAR)
01:11AM -32.1351 116.3717 331° Northwest 187 215 5,300 -600 Descending Aus ATC (RADAR)
01:12AM -32.1092 116.3534 329° Northwest 184 212 4,900 -600 Descending Aus ATC (RADAR)
01:13AM -32.0486 116.3111 329° Northwest 176 203 4,100 -480 Descending Aus ATC (RADAR)
01:14AM -32.0199 116.2916 330° Northwest 176 203 4,000 -120 Descending Aus ATC (RADAR)
01:15AM -31.9916 116.2718 329° Northwest 175 201 4,000 -420 Level Aus ATC (RADAR)
01:15AM -31.9724 116.2637 340° North 173 199 3,600 -840 Descending Aus ATC (RADAR)
01:16AM -31.9374 116.2483 340° North 179 206 3,100 -780 Descending Aus ATC (RADAR)
01:16AM -31.9090 116.2360 340° North 183 211 2,600 -480 Descending Aus ATC (RADAR)
01:17AM -31.8716 116.2173 337° Northwest 167 192 2,500 -120 Descending Aus ATC (RADAR)
01:18AM -31.8543 116.2053 329° Northwest 146 168 2,500 -120 Level Aus ATC (RADAR)
01:19AM -31.8477 116.1639 281° West 125 144 2,400 60 Descending Aus ATC (RADAR)
01:19AM -31.8461 116.1472 277° West 123 142 2,600 60 Climbing Aus ATC (RADAR)
01:20AM -31.8545 116.1261 245° Southwest 120 138 2,500 -240 Descending Aus ATC (RADAR)
01:21AM -31.8679 116.1004 238° Southwest 119 137 2,300 -300 Descending Aus ATC (RADAR)
01:21AM -31.8788 116.0808 237° Southwest 122 140 2,100 -600 Descending Aus ATC (RADAR)
01:22AM -31.8917 116.0557 239° Southwest 115 132 1,500 -660 Descending Aus ATC (RADAR)
01:22AM -31.8976 116.0446 238° Southwest 117 135 1,400 -600 Descending Aus ATC (RADAR)
01:24AM -31.9225 115.9952 239° Southwest 114 131 500 -240 Descending Aus ATC (RADAR)
01:24AM -31.9222 115.9736 271° West 120 138 900 660 Climbing Aus ATC (RADAR)
01:25AM -31.9205 115.9391 273° West 139 160 1,500 420 Climbing Aus ATC (RADAR)
01:26AM -31.9346 115.9177 232° Southwest 142 163 1,500 60 Level Aus ATC (RADAR)
01:26AM -31.9509 115.8988 224° Southwest 140 161 1,600  Climbing Aus ATC (RADAR)
01:26AM -31.9534 115.8961 223° Southwest 141 162 1,500 -180 Descending Aus ATC (RADAR)
01:28AM -31.9917 115.8637 216° Southwest 145 167 1,400  Descending Aus ATC (RADAR)
01:28AM -32.0132 115.8538 201° Southwest 146 168 1,500  Climbing Aus ATC (RADAR)
01:29AM -32.0476 115.8618 169° South 131 151 1,400 -240 Descending Aus ATC (RADAR)
01:29AM -32.0577 115.8746 133° Southeast 124 143 1,200 -600 Descending Aus ATC (RADAR)
01:30AM -32.0726 115.8941 132° Southeast 117 135 800 -720 Descending Aus ATC (RADAR)
01:31AM -32.0853 115.8987 163° South 113 130 400 -600 Descending Aus ATC (RADAR)
01:31AM -32.0967 115.8799 234° Southwest 88 101 100 -300 Descending Aus ATC (RADAR)
01:32AM -32.1002 115.8743 234° Southwest 62 71 100  Level Aus ATC (RADAR)